createdAt,value
2018-09-18T00:01:02.140Z,12.87
2018-09-18T00:03:31.369Z,12.67
2018-09-18T00:06:00.613Z,12.87
2018-09-18T00:08:29.837Z,12.69
2018-09-18T00:11:00.328Z,12.65
2018-09-18T00:13:29.558Z,12.55
2018-09-18T00:15:58.796Z,12.46
2018-09-18T00:18:28.026Z,12.83
2018-09-18T00:20:57.275Z,12.54
2018-09-18T00:23:26.495Z,12.58
2018-09-18T00:25:55.719Z,12.42
2018-09-18T00:28:24.958Z,12.42
2018-09-18T00:30:54.222Z,12.31
2018-09-18T00:33:23.450Z,12.23
2018-09-18T00:35:52.675Z,12.16
2018-09-18T00:38:21.910Z,12.10
2018-09-18T00:40:51.134Z,12.11
2018-09-18T00:43:20.388Z,12.11
2018-09-18T00:45:49.601Z,12.08
2018-09-18T00:48:20.068Z,12.09
2018-09-18T00:50:49.294Z,12.08
2018-09-18T00:53:18.512Z,12.13
2018-09-18T00:55:47.958Z,12.17
2018-09-18T00:58:17.206Z,12.10
2018-09-18T01:00:46.453Z,12.04
2018-09-18T01:03:15.783Z,12.04
2018-09-18T01:05:45.020Z,12.07
2018-09-18T01:08:14.250Z,12.07
2018-09-18T01:10:43.513Z,11.98
2018-09-18T01:13:12.743Z,11.91
2018-09-18T01:15:41.979Z,11.87
2018-09-18T01:18:11.197Z,11.88
2018-09-18T01:20:40.474Z,11.88
2018-09-18T01:23:09.790Z,11.87
2018-09-18T01:25:39.047Z,11.83
2018-09-18T01:28:08.271Z,11.94
2018-09-18T01:30:37.508Z,12.00
2018-09-18T01:33:06.806Z,11.90
2018-09-18T01:35:36.031Z,11.82
2018-09-18T01:38:05.298Z,11.83
2018-09-18T01:40:34.529Z,11.80
2018-09-18T01:43:03.761Z,11.79
2018-09-18T01:45:32.985Z,11.74
2018-09-18T01:48:02.214Z,11.65
2018-09-18T01:50:31.475Z,11.62
2018-09-18T01:53:00.726Z,11.68
2018-09-18T01:55:29.954Z,11.71
2018-09-18T01:57:59.194Z,11.60
2018-09-18T02:00:28.422Z,11.63
2018-09-18T02:02:57.659Z,11.62
2018-09-18T02:05:26.911Z,11.59
2018-09-18T02:07:56.170Z,11.51
2018-09-18T02:10:25.382Z,11.52
2018-09-18T02:12:54.702Z,11.52
2018-09-18T02:15:23.955Z,11.44
2018-09-18T02:17:53.192Z,11.39
2018-09-18T02:20:22.422Z,11.41
2018-09-18T02:22:51.649Z,11.41
2018-09-18T02:25:20.877Z,11.56
2018-09-18T02:27:50.110Z,11.42
2018-09-18T02:30:19.350Z,11.34
2018-09-18T02:32:48.595Z,11.36
2018-09-18T02:35:17.818Z,11.28
2018-09-18T02:37:47.064Z,11.22
2018-09-18T02:40:16.302Z,11.20
2018-09-18T02:42:45.544Z,11.27
2018-09-18T02:45:14.859Z,11.23
2018-09-18T02:47:44.075Z,11.14
2018-09-18T02:50:13.294Z,11.11
2018-09-18T02:52:42.543Z,11.42
2018-09-18T02:55:11.778Z,11.19
2018-09-18T02:57:41.010Z,11.21
2018-09-18T03:00:10.255Z,11.19
2018-09-18T03:02:39.496Z,11.10
2018-09-18T03:05:08.722Z,11.03
2018-09-18T03:07:37.983Z,11.02
2018-09-18T03:10:07.409Z,10.97
2018-09-18T03:12:36.634Z,11.00
2018-09-18T03:15:05.861Z,10.90
2018-09-18T03:17:35.107Z,10.95
2018-09-18T03:20:04.339Z,11.02
2018-09-18T03:22:33.563Z,10.97
2018-09-18T03:25:02.787Z,11.06
2018-09-18T03:27:32.105Z,11.14
2018-09-18T03:30:01.287Z,11.11
2018-09-18T03:32:30.543Z,11.12
2018-09-18T03:35:00.900Z,11.20
2018-09-18T03:37:30.122Z,11.25
2018-09-18T03:39:59.397Z,11.33
2018-09-18T03:42:28.659Z,11.35
2018-09-18T03:44:57.923Z,11.39
2018-09-18T03:47:27.159Z,11.35
2018-09-18T03:49:56.399Z,11.31
2018-09-18T03:52:25.638Z,11.20
2018-09-18T03:54:54.886Z,11.18
2018-09-18T03:57:24.118Z,11.23
2018-09-18T03:59:53.362Z,11.24
2018-09-18T04:02:22.588Z,11.29
2018-09-18T04:04:51.815Z,11.14
2018-09-18T04:07:21.042Z,11.05
2018-09-18T04:09:50.283Z,11.01
2018-09-18T04:12:19.502Z,11.22
2018-09-18T04:14:48.750Z,11.12
2018-09-18T04:17:18.054Z,10.96
2018-09-18T04:19:47.283Z,10.86
2018-09-18T04:22:16.516Z,10.80
2018-09-18T04:24:45.749Z,10.94
2018-09-18T04:27:14.971Z,10.75
2018-09-18T04:29:44.206Z,10.73
2018-09-18T04:32:13.445Z,10.87
2018-09-18T04:34:42.682Z,10.93
2018-09-18T04:37:11.911Z,10.84
2018-09-18T04:39:41.193Z,10.72
2018-09-18T04:42:10.416Z,10.65
2018-09-18T04:44:39.659Z,10.67
2018-09-18T04:47:08.912Z,10.91
2018-09-18T04:49:38.142Z,10.83
2018-09-18T04:52:07.403Z,10.68
2018-09-18T04:54:36.647Z,10.65
2018-09-18T04:57:05.930Z,10.67
2018-09-18T04:59:35.319Z,10.65
2018-09-18T05:02:04.582Z,10.67
2018-09-18T05:04:33.916Z,10.72
2018-09-18T05:07:03.154Z,10.80
2018-09-18T05:09:32.378Z,10.86
2018-09-18T05:12:01.625Z,10.86
2018-09-18T05:14:30.867Z,10.88
2018-09-18T05:17:00.771Z,10.93
2018-09-18T05:19:30.033Z,11.00
2018-09-18T05:22:00.530Z,11.29
2018-09-18T05:24:29.759Z,11.19
2018-09-18T05:26:59.014Z,11.12
2018-09-18T05:29:28.261Z,11.17
2018-09-18T05:31:57.483Z,11.29
2018-09-18T05:34:26.700Z,11.45
2018-09-18T05:36:55.983Z,11.52
2018-09-18T05:39:25.226Z,11.64
2018-09-18T05:41:54.661Z,11.77
2018-09-18T05:44:23.941Z,11.88
2018-09-18T05:46:53.186Z,11.98
2018-09-18T05:49:23.738Z,12.13
2018-09-18T05:51:52.968Z,12.22
2018-09-18T05:54:22.208Z,13.16
2018-09-18T05:56:51.441Z,13.38
2018-09-18T05:59:20.994Z,13.92
2018-09-18T06:01:50.258Z,16.26
2018-09-18T06:04:19.627Z,18.51
2018-09-18T06:06:48.858Z,20.93
2018-09-18T06:09:18.092Z,22.59
2018-09-18T06:11:47.329Z,23.54
2018-09-18T06:14:16.554Z,24.65
2018-09-18T06:16:45.769Z,24.77
2018-09-18T06:19:15.084Z,24.39
2018-09-18T06:21:44.278Z,24.96
2018-09-18T06:24:13.615Z,25.67
2018-09-18T06:26:42.828Z,25.90
2018-09-18T06:29:12.379Z,25.54
2018-09-18T06:31:41.836Z,25.56
2018-09-18T06:34:11.063Z,25.38
2018-09-18T06:36:40.275Z,25.97
2018-09-18T06:39:11.030Z,26.34
2018-09-18T06:41:40.550Z,26.12
2018-09-18T06:44:09.798Z,26.70
2018-09-18T06:46:39.030Z,27.46
2018-09-18T06:49:08.241Z,27.24
2018-09-18T06:51:37.509Z,27.67
2018-09-18T06:54:06.755Z,27.81
2018-09-18T06:56:36.000Z,28.72
2018-09-18T06:59:05.214Z,30.01
2018-09-18T07:01:34.455Z,29.39
2018-09-18T07:04:03.661Z,29.75
2018-09-18T07:06:32.926Z,29.94
2018-09-18T07:09:02.150Z,29.19
2018-09-18T07:11:31.385Z,30.20
2018-09-18T07:14:00.618Z,31.63
2018-09-18T07:16:29.845Z,31.71
2018-09-18T07:18:59.113Z,30.35
2018-09-18T07:21:28.335Z,30.25
2018-09-18T07:23:58.794Z,31.22
2018-09-18T07:26:28.023Z,34.09
2018-09-18T07:28:57.229Z,32.38
2018-09-18T07:31:26.473Z,33.15
2018-09-18T07:33:55.717Z,34.98
2018-09-18T07:36:24.931Z,32.98
2018-09-18T07:38:54.158Z,32.47
2018-09-18T07:41:23.401Z,32.04
2018-09-18T07:43:52.646Z,34.57
2018-09-18T07:46:21.898Z,34.71
2018-09-18T07:48:51.115Z,33.44
2018-09-18T07:51:20.350Z,33.52
2018-09-18T07:53:49.574Z,31.61
2018-09-18T07:56:18.790Z,31.84
2018-09-18T07:58:48.034Z,32.06
2018-09-18T08:01:17.262Z,31.09
2018-09-18T08:03:46.472Z,33.50
2018-09-18T08:06:15.687Z,31.84
2018-09-18T08:08:44.926Z,33.72
2018-09-18T08:11:14.203Z,33.92
2018-09-18T08:13:43.423Z,33.23
2018-09-18T08:16:12.651Z,32.65
2018-09-18T08:18:41.941Z,35.41
2018-09-18T08:21:11.147Z,35.61
2018-09-18T08:23:40.399Z,31.59
2018-09-18T08:26:09.609Z,32.41
2018-09-18T08:28:38.831Z,31.08
2018-09-18T08:31:08.046Z,32.46
2018-09-18T08:33:37.265Z,34.29
2018-09-18T08:36:06.646Z,33.22
2018-09-18T08:38:42.543Z,32.46
2018-09-18T08:41:11.765Z,33.38
2018-09-18T08:43:41.024Z,33.61
2018-09-18T08:46:10.283Z,31.34
2018-09-18T08:48:43.511Z,32.49
2018-09-18T08:51:12.723Z,32.29
2018-09-18T08:53:41.995Z,31.86
2018-09-18T08:56:11.181Z,32.87
2018-09-18T08:58:40.415Z,32.17
2018-09-18T09:01:09.734Z,30.82
2018-09-18T09:03:39.002Z,33.37
2018-09-18T09:06:08.351Z,34.42
2018-09-18T09:08:37.501Z,33.45
2018-09-18T09:11:06.736Z,34.85
2018-09-18T09:13:36.315Z,33.11
2018-09-18T09:16:05.513Z,31.55
2018-09-18T09:18:34.799Z,32.66
2018-09-18T09:21:04.023Z,32.27
2018-09-18T09:23:33.199Z,33.84
2018-09-18T09:26:02.453Z,33.71
2018-09-18T09:28:31.684Z,35.01
2018-09-18T09:31:01.384Z,34.33
2018-09-18T09:33:30.889Z,34.51
2018-09-18T09:36:00.082Z,33.39
2018-09-18T09:38:29.335Z,32.92
2018-09-18T09:40:58.559Z,34.54
2018-09-18T09:43:27.807Z,34.17
2018-09-18T09:45:57.050Z,34.09
2018-09-18T09:48:26.280Z,32.82
2018-09-18T09:50:55.499Z,33.03
2018-09-18T09:53:24.719Z,33.44
2018-09-18T09:55:53.954Z,31.44
2018-09-18T09:58:23.188Z,32.93
2018-09-18T10:00:57.673Z,33.40
2018-09-18T10:03:27.696Z,32.54
2018-09-18T10:05:56.921Z,32.42
2018-09-18T10:08:26.146Z,33.02
2018-09-18T10:10:55.507Z,32.28
2018-09-18T10:13:24.607Z,32.64
2018-09-18T10:15:53.818Z,33.49
2018-09-18T10:18:23.060Z,33.38
2018-09-18T10:20:52.270Z,33.94
2018-09-18T10:23:21.514Z,33.05
2018-09-18T10:25:50.780Z,34.01
2018-09-18T10:28:20.020Z,33.18
2018-09-18T10:30:49.224Z,33.88
2018-09-18T10:33:18.470Z,34.62
2018-09-18T10:35:47.686Z,34.78
2018-09-18T10:38:16.954Z,35.56
2018-09-18T10:40:46.209Z,34.17
2018-09-18T10:43:15.459Z,35.15
2018-09-18T10:45:44.671Z,35.78
2018-09-18T10:48:13.969Z,33.64
2018-09-18T10:50:43.199Z,32.97
2018-09-18T10:53:12.422Z,32.86
2018-09-18T10:55:41.649Z,31.48
2018-09-18T10:58:10.880Z,31.00
2018-09-18T11:00:40.114Z,31.65
2018-09-18T11:03:09.377Z,31.73
2018-09-18T11:05:38.576Z,31.51
2018-09-18T11:08:07.840Z,30.67
2018-09-18T11:10:37.071Z,30.06
2018-09-18T11:13:06.464Z,30.10
2018-09-18T11:15:35.752Z,30.67
2018-09-18T11:18:04.882Z,31.04
2018-09-18T11:20:34.103Z,32.24
2018-09-18T11:23:03.324Z,32.21
2018-09-18T11:25:32.589Z,32.73
2018-09-18T11:28:01.781Z,32.79
2018-09-18T11:30:31.062Z,31.96
2018-09-18T11:33:01.562Z,32.53
2018-09-18T11:35:30.585Z,33.96
2018-09-18T11:38:01.050Z,32.99
2018-09-18T11:40:30.294Z,31.46
2018-09-18T11:42:59.522Z,30.14
2018-09-18T11:45:28.806Z,30.34
2018-09-18T11:47:57.998Z,30.96
2018-09-18T11:50:27.407Z,31.65
2018-09-18T11:52:56.644Z,31.97
2018-09-18T11:55:25.850Z,30.74
2018-09-18T11:57:55.070Z,30.50
2018-09-18T12:00:24.289Z,29.79
2018-09-18T12:02:53.643Z,31.46
2018-09-18T12:05:22.818Z,31.39
2018-09-18T12:07:52.030Z,31.11
2018-09-18T12:10:21.461Z,31.56
2018-09-18T12:12:50.667Z,32.06
2018-09-18T12:15:19.941Z,31.63
2018-09-18T12:17:49.176Z,32.95
2018-09-18T12:20:18.409Z,33.96
2018-09-18T12:22:47.746Z,33.37
2018-09-18T12:25:16.987Z,35.58
2018-09-18T12:27:46.266Z,33.84
2018-09-18T12:30:15.466Z,32.53
2018-09-18T12:32:44.682Z,32.73
2018-09-18T12:35:13.934Z,32.13
2018-09-18T12:37:43.999Z,31.46
2018-09-18T12:40:13.230Z,30.95
2018-09-18T12:42:42.534Z,31.37
2018-09-18T12:45:11.713Z,33.93
2018-09-18T12:47:40.924Z,33.30
2018-09-18T12:50:10.264Z,32.76
2018-09-18T12:52:39.390Z,33.28
2018-09-18T12:55:08.614Z,32.68
2018-09-18T12:57:38.121Z,32.30
2018-09-18T13:00:07.645Z,32.37
2018-09-18T13:02:36.821Z,32.44
2018-09-18T13:05:06.106Z,31.96
2018-09-18T13:07:35.344Z,32.09
2018-09-18T13:10:04.582Z,31.51
2018-09-18T13:12:33.800Z,32.10
2018-09-18T13:15:03.042Z,32.21
2018-09-18T13:17:32.349Z,31.43
2018-09-18T13:20:01.517Z,30.51
2018-09-18T13:22:30.709Z,29.32
2018-09-18T13:24:59.927Z,28.36
2018-09-18T13:27:29.146Z,28.45
2018-09-18T13:29:58.383Z,28.83
2018-09-18T13:32:27.661Z,29.30
2018-09-18T13:34:56.896Z,29.94
2018-09-18T13:37:26.981Z,29.93
2018-09-18T13:39:56.220Z,29.91
2018-09-18T13:42:25.434Z,29.77
2018-09-18T13:44:54.979Z,29.53
2018-09-18T13:47:24.207Z,28.95
2018-09-18T13:49:53.462Z,28.49
2018-09-18T13:52:22.715Z,28.34
2018-09-18T13:54:51.921Z,27.86
2018-09-18T13:57:21.188Z,27.85
2018-09-18T13:59:50.451Z,27.67
2018-09-18T14:02:19.792Z,27.77
2018-09-18T14:04:49.040Z,27.33
2018-09-18T14:07:18.221Z,27.28
2018-09-18T14:09:48.333Z,27.42
2018-09-18T14:12:17.781Z,27.80
2018-09-18T14:14:47.074Z,27.47
2018-09-18T14:17:16.481Z,27.31
2018-09-18T14:19:45.705Z,27.42
2018-09-18T14:22:14.954Z,27.83
2018-09-18T14:24:44.155Z,27.62
2018-09-18T14:27:13.398Z,27.84
2018-09-18T14:29:42.678Z,28.25
2018-09-18T14:32:11.958Z,28.95
2018-09-18T14:34:41.169Z,28.88
2018-09-18T14:37:10.379Z,28.51
2018-09-18T14:39:39.610Z,28.60
2018-09-18T14:42:08.844Z,28.84
2018-09-18T14:44:38.073Z,28.52
2018-09-18T14:47:07.318Z,28.15
2018-09-18T14:49:36.539Z,28.59
2018-09-18T14:52:05.768Z,27.88
2018-09-18T14:54:34.983Z,27.72
2018-09-18T14:57:04.198Z,28.02
2018-09-18T14:59:33.431Z,27.18
2018-09-18T15:02:02.651Z,27.19
2018-09-18T15:04:31.882Z,27.10
2018-09-18T15:07:01.865Z,26.90
2018-09-18T15:09:31.518Z,26.46
2018-09-18T15:12:00.771Z,25.98
2018-09-18T15:14:29.998Z,25.66
2018-09-18T15:16:59.228Z,25.51
2018-09-18T15:19:28.455Z,25.33
2018-09-18T15:21:57.759Z,25.21
2018-09-18T15:24:26.910Z,24.88
2018-09-18T15:26:56.138Z,24.93
2018-09-18T15:29:25.374Z,24.74
2018-09-18T15:31:54.635Z,24.66
2018-09-18T15:34:23.894Z,24.40
2018-09-18T15:36:53.147Z,24.30
2018-09-18T15:39:22.449Z,24.20
2018-09-18T15:41:51.654Z,24.01
2018-09-18T15:44:20.898Z,24.05
2018-09-18T15:46:50.139Z,23.93
2018-09-18T15:49:19.545Z,23.79
2018-09-18T15:51:48.902Z,23.73
2018-09-18T15:54:18.086Z,23.64
2018-09-18T15:56:47.292Z,23.53
2018-09-18T15:59:16.555Z,23.49
2018-09-18T16:01:45.784Z,23.35
2018-09-18T16:04:15.006Z,23.12
2018-09-18T16:06:44.238Z,23.05
2018-09-18T16:09:13.463Z,22.71
2018-09-18T16:11:42.690Z,22.52
2018-09-18T16:14:11.956Z,22.22
2018-09-18T16:16:41.283Z,22.09
2018-09-18T16:19:10.511Z,21.90
2018-09-18T16:21:39.707Z,21.81
2018-09-18T16:24:08.955Z,21.56
2018-09-18T16:26:38.179Z,21.03
2018-09-18T16:29:07.438Z,20.38
2018-09-18T16:31:36.655Z,20.10
2018-09-18T16:34:05.902Z,19.92
2018-09-18T16:36:35.154Z,19.58
2018-09-18T16:39:05.621Z,19.35
2018-09-18T16:41:34.854Z,19.21
2018-09-18T16:44:04.086Z,19.25
2018-09-18T16:46:33.324Z,19.36
2018-09-18T16:49:03.870Z,19.12
2018-09-18T16:51:33.350Z,19.03
2018-09-18T16:54:02.562Z,19.05
2018-09-18T16:56:31.787Z,19.16
2018-09-18T16:59:01.991Z,19.12
2018-09-18T17:01:31.922Z,19.03
2018-09-18T17:04:01.154Z,19.12
2018-09-18T17:06:30.391Z,19.19
2018-09-18T17:08:59.586Z,19.18
2018-09-18T17:11:28.834Z,18.79
2018-09-18T17:13:58.073Z,18.35
2018-09-18T17:16:27.406Z,17.87
2018-09-18T17:18:56.582Z,17.55
2018-09-18T17:21:25.802Z,16.87
2018-09-18T17:23:55.008Z,16.80
2018-09-18T17:26:24.247Z,16.57
2018-09-18T17:28:53.628Z,16.48
2018-09-18T17:31:22.708Z,16.45
2018-09-18T17:33:51.930Z,16.38
2018-09-18T17:36:21.142Z,16.23
2018-09-18T17:38:50.362Z,16.28
2018-09-18T17:41:19.639Z,16.23
2018-09-18T17:43:48.805Z,16.24
2018-09-18T17:46:18.031Z,16.13
2018-09-18T17:48:47.258Z,16.00
2018-09-18T17:51:16.468Z,15.98
2018-09-18T17:53:46.299Z,15.88
2018-09-18T17:56:15.543Z,15.90
2018-09-18T17:58:44.763Z,15.88
2018-09-18T18:01:14.236Z,15.87
2018-09-18T18:03:43.449Z,15.81
2018-09-18T18:06:12.682Z,15.80
2018-09-18T18:08:41.988Z,15.84
2018-09-18T18:11:11.138Z,15.78
2018-09-18T18:13:40.390Z,15.73
2018-09-18T18:16:09.636Z,15.72
2018-09-18T18:18:38.871Z,15.74
2018-09-18T18:21:08.242Z,15.81
2018-09-18T18:23:37.522Z,15.81
2018-09-18T18:26:06.711Z,15.74
2018-09-18T18:28:35.934Z,15.72
2018-09-18T18:31:05.219Z,15.65
2018-09-18T18:33:34.484Z,15.93
2018-09-18T18:36:03.802Z,15.91
2018-09-18T18:38:33.076Z,15.83
2018-09-18T18:41:02.338Z,15.64
2018-09-18T18:43:31.528Z,15.69
2018-09-18T18:46:00.827Z,15.62
2018-09-18T18:48:30.132Z,15.48
2018-09-18T18:50:59.335Z,15.38
2018-09-18T18:53:28.587Z,15.32
2018-09-18T18:55:57.817Z,15.18
2018-09-18T18:58:27.080Z,15.15
2018-09-18T19:00:56.356Z,15.10
2018-09-18T19:03:25.547Z,15.13
2018-09-18T19:05:54.794Z,15.12
2018-09-18T19:08:24.029Z,15.13
2018-09-18T19:10:53.267Z,15.16
2018-09-18T19:13:22.497Z,15.23
2018-09-18T19:15:51.734Z,15.25
2018-09-18T19:18:21.027Z,15.37
2018-09-18T19:20:50.199Z,15.32
2018-09-18T19:23:19.486Z,15.25
2018-09-18T19:25:48.698Z,15.27
2018-09-18T19:28:17.896Z,15.27
2018-09-18T19:30:47.406Z,15.27
2018-09-18T19:33:16.811Z,15.32
2018-09-18T19:35:45.860Z,15.36
2018-09-18T19:38:15.092Z,15.33
2018-09-18T19:40:44.319Z,15.35
2018-09-18T19:43:13.645Z,15.35
2018-09-18T19:45:42.827Z,15.34
2018-09-18T19:48:12.033Z,15.22
2018-09-18T19:50:41.293Z,15.26
2018-09-18T19:53:10.500Z,15.22
2018-09-18T19:55:39.765Z,15.16
2018-09-18T19:58:08.979Z,15.19
2018-09-18T20:00:38.202Z,15.17
2018-09-18T20:03:07.500Z,15.14
2018-09-18T20:05:36.698Z,15.09
2018-09-18T20:08:05.994Z,15.42
2018-09-18T20:10:35.228Z,15.37
2018-09-18T20:13:04.448Z,15.43
2018-09-18T20:15:33.692Z,15.36
2018-09-18T20:18:02.962Z,15.28
2018-09-18T20:20:32.196Z,15.18
2018-09-18T20:23:02.279Z,15.19
2018-09-18T20:25:31.499Z,15.27
2018-09-18T20:28:00.715Z,15.04
2018-09-18T20:30:29.944Z,15.03
2018-09-18T20:32:59.180Z,15.00
2018-09-18T20:35:28.419Z,15.16
2018-09-18T20:37:57.679Z,15.15
2018-09-18T20:40:26.927Z,15.10
2018-09-18T20:42:56.252Z,15.43
2018-09-18T20:45:25.490Z,15.33
2018-09-18T20:47:54.697Z,15.49
2018-09-18T20:50:24.427Z,15.42
2018-09-18T20:52:55.057Z,15.48
2018-09-18T20:55:24.456Z,15.45
2018-09-18T20:57:54.912Z,15.41
2018-09-18T21:00:24.127Z,15.40
2018-09-18T21:02:53.350Z,15.32
2018-09-18T21:05:22.607Z,15.42
2018-09-18T21:07:51.932Z,15.21
2018-09-18T21:10:21.131Z,15.23
2018-09-18T21:12:50.389Z,14.96
2018-09-18T21:15:19.632Z,14.88
2018-09-18T21:17:48.825Z,14.91
2018-09-18T21:20:18.105Z,15.05
2018-09-18T21:22:47.318Z,14.77
2018-09-18T21:25:20.817Z,14.85
2018-09-18T21:27:50.044Z,14.74
2018-09-18T21:30:19.271Z,14.74
2018-09-18T21:32:48.483Z,14.70
2018-09-18T21:35:18.719Z,14.62
2018-09-18T21:37:47.956Z,14.55
2018-09-18T21:40:17.242Z,14.48
2018-09-18T21:42:46.455Z,14.44
2018-09-18T21:45:15.678Z,14.72
2018-09-18T21:47:44.925Z,14.43
2018-09-18T21:50:14.152Z,14.40
2018-09-18T21:52:43.364Z,14.42
2018-09-18T21:55:12.583Z,14.51
2018-09-18T21:57:41.799Z,14.52
2018-09-18T22:00:11.036Z,14.56
2018-09-18T22:02:40.293Z,14.59
2018-09-18T22:05:09.535Z,14.72
2018-09-18T22:07:38.781Z,14.79
2018-09-18T22:10:08.009Z,14.76
2018-09-18T22:12:38.118Z,14.71
2018-09-18T22:15:07.604Z,14.62
2018-09-18T22:17:36.822Z,14.57
2018-09-18T22:20:07.346Z,14.57
2018-09-18T22:22:36.607Z,14.63
2018-09-18T22:25:05.970Z,14.48
2018-09-18T22:27:35.202Z,14.49
2018-09-18T22:30:04.779Z,14.51
2018-09-18T22:32:34.030Z,14.54
2018-09-18T22:35:03.266Z,15.00
2018-09-18T22:37:32.533Z,14.70
2018-09-18T22:40:01.744Z,14.65
2018-09-18T22:42:30.995Z,14.65
2018-09-18T22:45:00.217Z,14.69
2018-09-18T22:47:29.449Z,14.88
2018-09-18T22:49:58.679Z,14.94
2018-09-18T22:52:27.929Z,15.06
2018-09-18T22:54:57.149Z,15.16
2018-09-18T22:57:26.447Z,15.15
2018-09-18T22:59:56.839Z,14.97
2018-09-18T23:02:26.098Z,14.97
2018-09-18T23:04:55.387Z,15.05
2018-09-18T23:07:24.608Z,15.11
2018-09-18T23:09:53.847Z,15.03
2018-09-18T23:12:23.073Z,14.83
2018-09-18T23:14:52.314Z,14.79
2018-09-18T23:17:21.530Z,14.67
2018-09-18T23:19:50.759Z,14.96
2018-09-18T23:22:20.009Z,14.77
2018-09-18T23:24:49.246Z,14.66
2018-09-18T23:27:18.526Z,14.64
2018-09-18T23:29:47.739Z,14.87
2018-09-18T23:32:16.975Z,14.72
2018-09-18T23:34:46.197Z,14.62
2018-09-18T23:37:15.447Z,14.45
2018-09-18T23:39:44.692Z,14.48
2018-09-18T23:42:14.002Z,14.50
2018-09-18T23:44:43.161Z,14.40
2018-09-18T23:47:12.397Z,14.30
2018-09-18T23:49:41.625Z,14.25
2018-09-18T23:52:10.856Z,14.24
2018-09-18T23:54:40.093Z,14.16
2018-09-18T23:57:09.314Z,13.91
2018-09-18T23:59:38.558Z,14.22
